Time;durP1;ratioP1;P1;durP2;ratioP2;P2;SDS_P1;SDS_P2;PMS_P1;PMS_P2;Temp;Humidity;BMP_temperature;BMP_pressure;BME280_temperature;BME280_humidity;BME280_pressure;Samples;Min_cycle;Max_cycle;Signal;HPM_P1;HPM_P2
2022/11/15 00:00:03;;;;;;;37.50;25.97;;;6.80;99.90;;;;;;5054052;28;20227;-53
2022/11/15 00:02:50;;;;;;;34.37;25.47;;;6.70;99.90;;;;;;5053509;28;20311;-54
2022/11/15 00:05:37;;;;;;;33.07;25.03;;;6.70;99.90;;;;;;5053646;28;20231;-52
2022/11/15 00:08:23;;;;;;;34.83;23.53;;;6.80;99.90;;;;;;5053880;28;20235;-53
2022/11/15 00:11:12;;;;;;;33.23;24.57;;;6.80;99.90;;;;;;5053829;28;20222;-54
2022/11/15 00:14:02;;;;;;;30.10;22.17;;;6.80;99.90;;;;;;5053292;28;20285;-52
2022/11/15 00:16:48;;;;;;;31.53;23.30;;;6.80;99.90;;;;;;5053407;28;20373;-53
2022/11/15 00:19:36;;;;;;;32.63;22.60;;;6.90;99.90;;;;;;5060522;28;20227;-54
2022/11/15 00:22:22;;;;;;;30.83;22.83;;;6.90;99.90;;;;;;5052918;28;20289;-52
2022/11/15 00:25:09;;;;;;;29.83;21.27;;;6.90;99.90;;;;;;5055844;28;20278;-52
2022/11/15 00:27:57;;;;;;;32.80;23.33;;;7.10;99.90;;;;;;5054989;28;20580;-51
2022/11/15 00:30:44;;;;;;;30.67;22.47;;;7.10;99.90;;;;;;5052927;28;20242;-53
2022/11/15 00:33:31;;;;;;;31.90;23.40;;;7.10;99.90;;;;;;5053197;28;20227;-52
2022/11/15 00:36:19;;;;;;;32.80;22.00;;;7.20;99.90;;;;;;5053475;28;20227;-55
2022/11/15 00:39:06;;;;;;;32.27;22.40;;;7.10;99.90;;;;;;5053117;28;20285;-52
2022/11/15 00:41:53;;;;;;;32.13;22.73;;;7.10;99.90;;;;;;5053550;28;20238;-53
2022/11/15 00:44:39;;;;;;;30.50;21.60;;;7.00;99.90;;;;;;5052768;28;20709;-52
2022/11/15 00:47:26;;;;;;;26.83;20.07;;;7.00;99.90;;;;;;5037032;28;20799;-54
2022/11/15 00:50:12;;;;;;;29.53;20.73;;;7.20;99.90;;;;;;5053084;28;20242;-54
2022/11/15 00:53:03;;;;;;;27.97;19.50;;;7.00;99.90;;;;;;5053506;28;20334;-52
2022/11/15 00:55:49;;;;;;;28.70;22.57;;;7.20;99.90;;;;;;5060156;28;20238;-54
2022/11/15 00:58:36;;;;;;;29.77;22.30;;;7.10;99.90;;;;;;5052889;28;20358;-53
2022/11/15 01:01:22;;;;;;;26.83;19.43;;;7.00;99.90;;;;;;5052493;28;20243;-53
2022/11/15 01:04:09;;;;;;;26.13;21.03;;;6.90;99.90;;;;;;5052890;28;20304;-51
2022/11/15 01:06:55;;;;;;;26.73;20.20;;;6.90;99.90;;;;;;5053009;28;20251;-52
2022/11/15 01:09:43;;;;;;;29.50;20.17;;;6.90;99.90;;;;;;5053129;28;20230;-51
2022/11/15 01:12:30;;;;;;;27.27;19.87;;;6.80;99.90;;;;;;5052988;28;20234;-54
2022/11/15 01:15:16;;;;;;;26.73;19.97;;;6.80;99.90;;;;;;5052642;28;20555;-54
2022/11/15 01:18:03;;;;;;;26.07;19.43;;;6.90;99.90;;;;;;5059273;28;20582;-52
2022/11/15 01:20:49;;;;;;;26.13;19.63;;;6.80;99.90;;;;;;5059935;28;20377;-53
2022/11/15 01:23:36;;;;;;;28.07;20.00;;;6.90;99.90;;;;;;5052447;28;20710;-51
2022/11/15 01:26:25;;;;;;;26.17;19.10;;;6.80;99.90;;;;;;5059865;28;20726;-51
2022/11/15 01:29:11;;;;;;;24.47;18.63;;;6.90;99.90;;;;;;5044582;28;20709;-52
2022/11/15 01:31:58;;;;;;;24.87;19.67;;;6.90;99.90;;;;;;5053164;28;20365;-53
2022/11/15 01:34:45;;;;;;;26.37;19.47;;;6.90;99.90;;;;;;5056457;28;20242;-54
2022/11/15 01:37:31;;;;;;;27.93;19.40;;;6.90;99.90;;;;;;5056582;28;20777;-54
2022/11/15 01:40:18;;;;;;;24.53;19.00;;;6.90;99.90;;;;;;5056520;28;20254;-51
2022/11/15 01:43:25;;;;;;;24.83;18.20;;;6.90;99.90;;;;;;5056275;28;20497;-53
2022/11/15 01:46:25;;;;;;;23.73;17.57;;;6.80;99.90;;;;;;5048675;28;20366;-50
2022/11/15 01:49:16;;;;;;;22.67;17.73;;;6.80;99.90;;;;;;5065152;28;20226;-51
2022/11/15 01:52:07;;;;;;;23.87;17.90;;;6.80;99.90;;;;;;5057135;28;20234;-52
2022/11/15 01:55:00;;;;;;;24.63;19.03;;;6.80;99.90;;;;;;5056674;28;20302;-53
2022/11/15 01:57:49;;;;;;;24.63;18.60;;;6.80;99.90;;;;;;5059106;28;20226;-52
2022/11/15 02:00:37;;;;;;;23.17;17.93;;;6.90;99.90;;;;;;5055625;28;20247;-53
2022/11/15 02:03:35;;;;;;;26.90;18.63;;;6.80;99.90;;;;;;5055908;28;20245;-53
2022/11/15 02:06:23;;;;;;;22.70;18.07;;;7.00;99.90;;;;;;5056111;28;20235;-52
2022/11/15 02:09:10;;;;;;;23.13;17.53;;;6.90;99.90;;;;;;5056093;28;20726;-52
2022/11/15 02:11:58;;;;;;;23.57;18.27;;;6.80;99.90;;;;;;5055457;28;20321;-53
2022/11/15 02:14:48;;;;;;;21.47;17.10;;;6.80;99.90;;;;;;5055586;28;20278;-53
2022/11/15 02:17:51;;;;;;;23.30;18.07;;;6.80;99.90;;;;;;5061044;28;20725;-53
2022/11/15 02:20:46;;;;;;;22.60;17.53;;;6.80;99.90;;;;;;5054224;28;20230;-53
2022/11/15 02:24:32;;;;;;;21.30;16.47;;;6.80;99.90;;;;;;5055409;28;20227;-52
2022/11/15 02:27:49;;;;;;;24.23;17.40;;;6.80;99.90;;;;;;5062423;28;20457;-52
2022/11/15 02:30:42;;;;;;;27.00;18.37;;;6.70;99.90;;;;;;5056463;28;20293;-52
2022/11/15 02:33:37;;;;;;;24.37;18.13;;;6.70;99.90;;;;;;5055507;28;20312;-54
2022/11/15 02:36:35;;;;;;;23.07;17.77;;;6.70;99.90;;;;;;5069845;28;20280;-52
2022/11/15 02:39:29;;;;;;;23.47;16.73;;;6.70;99.90;;;;;;5075731;28;20461;-53
2022/11/15 02:45:29;;;;;;;19.87;16.23;;;6.80;99.90;;;;;;5048486;28;20673;-53
2022/11/15 02:48:18;;;;;;;23.50;16.90;;;6.70;99.90;;;;;;5061595;28;20239;-52
2022/11/15 02:51:05;;;;;;;20.63;16.30;;;6.80;99.90;;;;;;5055364;28;20587;-54
2022/11/15 02:53:52;;;;;;;22.67;16.67;;;6.80;99.90;;;;;;5055328;28;20319;-52
2022/11/15 02:56:38;;;;;;;19.90;16.20;;;6.70;99.90;;;;;;5062330;28;20270;-54
2022/11/15 03:00:09;;;;;;;20.13;16.27;;;6.70;99.90;;;;;;5049260;28;20266;-53
2022/11/15 03:03:13;;;;;;;20.43;16.00;;;6.80;99.90;;;;;;5054612;28;20239;-51
2022/11/15 03:06:10;;;;;;;20.70;15.73;;;6.90;99.90;;;;;;5062523;28;20218;-53
2022/11/15 03:09:04;;;;;;;21.90;16.90;;;6.90;99.90;;;;;;5058496;28;20703;-54
2022/11/15 03:11:57;;;;;;;20.90;15.67;;;6.80;99.90;;;;;;5054962;28;20752;-53
2022/11/15 03:14:52;;;;;;;20.57;15.63;;;6.80;99.90;;;;;;5054425;28;20604;-52
2022/11/15 03:17:44;;;;;;;21.90;17.20;;;6.90;99.90;;;;;;5060648;28;20234;-53
2022/11/15 03:20:32;;;;;;;21.50;16.07;;;6.80;99.90;;;;;;5049271;28;20626;-52
2022/11/15 03:23:20;;;;;;;21.67;16.50;;;6.80;99.90;;;;;;5054685;28;20374;-52
2022/11/15 03:26:10;;;;;;;22.23;16.47;;;6.90;99.90;;;;;;5061562;28;20796;-51
2022/11/15 03:29:01;;;;;;;23.07;16.73;;;6.90;99.90;;;;;;5054389;28;20247;-51
2022/11/15 03:31:52;;;;;;;23.97;16.27;;;6.90;99.90;;;;;;5054120;28;20741;-54
2022/11/15 03:34:42;;;;;;;19.60;15.83;;;6.90;99.90;;;;;;5054579;28;20226;-52
2022/11/15 03:37:34;;;;;;;19.47;15.00;;;6.90;99.90;;;;;;5072798;28;20320;-53
2022/11/15 03:40:26;;;;;;;24.30;16.53;;;7.00;99.90;;;;;;5074492;28;20231;-52
2022/11/15 03:43:23;;;;;;;20.67;15.80;;;7.00;99.90;;;;;;5067618;28;20273;-54
2022/11/15 03:46:15;;;;;;;24.70;17.50;;;7.00;99.90;;;;;;5045905;28;20852;-54
2022/11/15 03:49:07;;;;;;;22.23;16.80;;;7.10;99.90;;;;;;5060458;28;20230;-53
2022/11/15 03:51:57;;;;;;;24.27;16.83;;;7.00;99.90;;;;;;5053873;28;20239;-53
2022/11/15 03:54:53;;;;;;;23.43;17.83;;;7.10;99.90;;;;;;5053826;28;20269;-53
2022/11/15 03:57:41;;;;;;;21.33;16.90;;;7.10;99.90;;;;;;5049371;28;20270;-53
2022/11/15 04:00:29;;;;;;;21.57;16.13;;;7.40;99.90;;;;;;5033450;28;20231;-53
2022/11/15 04:03:15;;;;;;;24.67;17.43;;;7.40;99.90;;;;;;5034020;28;20244;-54
2022/11/15 04:06:02;;;;;;;23.90;17.03;;;7.40;99.90;;;;;;5047662;28;20225;-54
2022/11/15 04:08:48;;;;;;;24.07;17.33;;;7.30;99.90;;;;;;5073395;28;20358;-53
2022/11/15 04:11:35;;;;;;;25.73;17.53;;;7.30;99.90;;;;;;5073967;28;20721;-51
2022/11/15 04:14:22;;;;;;;23.00;17.40;;;7.30;99.90;;;;;;5057433;28;20341;-53
2022/11/15 04:17:09;;;;;;;22.13;17.00;;;7.30;99.90;;;;;;5037194;28;20603;-54
2022/11/15 04:26:08;;;;;;;22.23;15.67;;;7.40;99.90;;;;;;5052565;28;20278;-54
2022/11/15 04:31:59;;;;;;;24.10;17.17;;;7.70;99.90;;;;;;5067405;28;20241;-53
2022/11/15 04:34:46;;;;;;;25.33;18.40;;;7.90;99.90;;;;;;5073401;28;20311;-54
2022/11/15 04:37:32;;;;;;;27.60;20.17;;;7.70;99.90;;;;;;5072936;28;20238;-51
2022/11/15 04:40:19;;;;;;;30.80;21.93;;;7.60;99.90;;;;;;5073350;28;20702;-54
2022/11/15 04:43:05;;;;;;;25.63;19.93;;;7.60;99.90;;;;;;5067149;28;20253;-54
2022/11/15 04:45:52;;;;;;;23.07;17.13;;;7.80;99.90;;;;;;5053247;28;20239;-53
2022/11/15 04:48:40;;;;;;;27.00;18.90;;;8.00;99.90;;;;;;5059208;28;20291;-51
2022/11/15 04:51:27;;;;;;;27.00;19.60;;;8.20;99.90;;;;;;5047213;28;20311;-53
2022/11/15 04:54:13;;;;;;;23.20;17.43;;;8.10;99.90;;;;;;5052721;28;20238;-54
2022/11/15 04:57:00;;;;;;;25.80;18.40;;;8.10;99.90;;;;;;5053056;28;20746;-53
2022/11/15 04:59:46;;;;;;;23.57;17.43;;;8.20;99.90;;;;;;5052875;28;20222;-54
2022/11/15 05:05:34;;;;;;;25.60;17.87;;;7.90;99.90;;;;;;5052877;28;20226;-54
2022/11/15 05:08:21;;;;;;;23.53;17.47;;;7.80;99.90;;;;;;5052516;28;20254;-52
2022/11/15 05:11:08;;;;;;;22.07;17.40;;;7.80;99.90;;;;;;5053100;28;20604;-54
2022/11/15 05:13:55;;;;;;;23.27;17.27;;;7.80;99.90;;;;;;5055566;28;20317;-55
2022/11/15 05:16:42;;;;;;;22.33;17.70;;;7.80;99.90;;;;;;5052490;28;20239;-54
2022/11/15 05:19:28;;;;;;;21.17;17.03;;;7.80;99.90;;;;;;5047002;28;20222;-55
2022/11/15 05:22:16;;;;;;;23.43;16.70;;;8.00;99.90;;;;;;5033043;28;20341;-52
2022/11/15 05:25:03;;;;;;;22.20;16.37;;;8.20;99.90;;;;;;5041039;28;20788;-51
2022/11/15 05:27:49;;;;;;;23.87;16.57;;;8.10;99.90;;;;;;5052555;28;20227;-54
2022/11/15 05:30:36;;;;;;;23.53;17.77;;;8.10;99.90;;;;;;5054124;28;20242;-54
2022/11/15 05:33:24;;;;;;;21.23;15.80;;;8.00;99.90;;;;;;5072772;28;20748;-53
2022/11/15 05:36:17;;;;;;;21.67;15.90;;;8.10;99.90;;;;;;5072567;28;20229;-54
2022/11/15 05:39:06;;;;;;;25.73;18.97;;;8.20;99.90;;;;;;5072894;28;20234;-54
2022/11/15 05:42:00;;;;;;;23.20;16.63;;;8.20;99.90;;;;;;5072424;28;20222;-53
2022/11/15 05:44:50;;;;;;;22.17;17.03;;;8.20;99.90;;;;;;5052209;28;20235;-54
2022/11/15 05:47:38;;;;;;;23.33;17.63;;;8.30;99.90;;;;;;5052413;28;20239;-53
2022/11/15 05:50:24;;;;;;;20.90;15.93;;;8.30;99.90;;;;;;5052257;28;20738;-52
2022/11/15 05:53:12;;;;;;;22.33;16.80;;;8.60;99.90;;;;;;5052647;28;20722;-53
2022/11/15 05:56:00;;;;;;;22.60;16.23;;;8.70;99.90;;;;;;5058213;28;20231;-54
2022/11/15 05:58:47;;;;;;;23.07;17.83;;;8.80;99.90;;;;;;5052358;28;20235;-55
2022/11/15 06:01:34;;;;;;;20.47;16.33;;;8.50;99.90;;;;;;5064078;28;20246;-55
2022/11/15 06:04:20;;;;;;;21.83;16.67;;;8.40;99.90;;;;;;5070113;28;20373;-55
2022/11/15 06:07:06;;;;;;;19.43;15.97;;;8.60;99.90;;;;;;5048823;28;20842;-53
2022/11/15 06:09:53;;;;;;;19.67;14.67;;;8.50;99.90;;;;;;5052076;28;20587;-54
2022/11/15 06:12:41;;;;;;;23.73;15.87;;;8.80;99.90;;;;;;5052281;28;20226;-52
2022/11/15 06:15:28;;;;;;;19.33;14.50;;;9.00;99.90;;;;;;5046209;28;20246;-54
2022/11/15 06:18:14;;;;;;;21.97;16.10;;;8.90;99.90;;;;;;5053414;28;20587;-54
2022/11/15 06:21:01;;;;;;;20.13;14.70;;;8.90;99.90;;;;;;5055818;28;20354;-53
2022/11/15 06:23:48;;;;;;;20.77;15.03;;;8.90;99.90;;;;;;5055550;28;20239;-55
2022/11/15 06:26:35;;;;;;;19.37;15.60;;;9.00;99.90;;;;;;5056439;28;20371;-55
2022/11/15 06:29:24;;;;;;;19.80;15.67;;;9.00;99.90;;;;;;5059401;28;20706;-54
2022/11/15 06:32:10;;;;;;;21.23;15.83;;;8.90;99.90;;;;;;5058043;28;20630;-54
2022/11/15 06:34:57;;;;;;;21.77;15.73;;;8.90;99.90;;;;;;5057809;28;20645;-54
2022/11/15 06:37:44;;;;;;;17.83;15.53;;;8.90;99.90;;;;;;5054150;28;20235;-57
2022/11/15 06:40:30;;;;;;;20.70;15.90;;;9.00;99.90;;;;;;5056498;28;20226;-55
2022/11/15 06:43:17;;;;;;;18.37;15.97;;;9.10;99.90;;;;;;5057084;28;20346;-52
2022/11/15 06:46:06;;;;;;;24.10;18.43;;;9.00;99.90;;;;;;5055053;28;20796;-53
2022/11/15 06:48:53;;;;;;;32.30;23.47;;;9.10;99.90;;;;;;5053186;28;20285;-54
2022/11/15 06:51:39;;;;;;;22.43;16.70;;;9.10;99.90;;;;;;5057271;28;20290;-55
2022/11/15 06:54:26;;;;;;;19.40;15.57;;;9.20;99.90;;;;;;5057681;28;20279;-55
2022/11/15 06:57:12;;;;;;;18.57;15.23;;;9.20;99.90;;;;;;5058976;28;20233;-54
2022/11/15 06:59:59;;;;;;;19.73;15.43;;;9.20;99.90;;;;;;5052909;28;20365;-51
2022/11/15 07:02:47;;;;;;;18.70;14.87;;;9.20;99.90;;;;;;5051484;28;20276;-52
2022/11/15 07:05:34;;;;;;;22.83;16.07;;;9.10;99.90;;;;;;5054098;28;20338;-53
2022/11/15 07:08:20;;;;;;;17.37;14.17;;;9.20;99.90;;;;;;5054774;28;20231;-55
2022/11/15 07:11:09;;;;;;;18.60;15.20;;;9.20;99.90;;;;;;5054109;28;20327;-54
2022/11/15 07:13:55;;;;;;;19.60;15.17;;;9.30;99.90;;;;;;5057822;28;20238;-53
2022/11/15 07:16:41;;;;;;;17.03;14.93;;;9.40;99.90;;;;;;5059080;28;20265;-54
2022/11/15 07:19:29;;;;;;;18.27;15.27;;;9.40;99.90;;;;;;5058695;28;20226;-54
2022/11/15 07:22:16;;;;;;;18.27;15.27;;;9.50;99.90;;;;;;5049870;28;20234;-52
2022/11/15 07:25:02;;;;;;;18.13;14.87;;;9.50;99.90;;;;;;5054646;28;20629;-54
2022/11/15 07:27:56;;;;;;;21.10;15.40;;;9.60;99.90;;;;;;5053637;28;20246;-54
2022/11/15 07:30:43;;;;;;;19.80;14.97;;;9.50;99.90;;;;;;5055562;28;20238;-55
2022/11/15 07:33:30;;;;;;;22.10;16.97;;;9.60;99.90;;;;;;5053579;28;20227;-52
2022/11/15 07:36:19;;;;;;;20.43;16.33;;;9.60;99.90;;;;;;5055836;28;20231;-53
2022/11/15 07:39:05;;;;;;;17.50;15.53;;;9.60;99.90;;;;;;5054542;28;20238;-55
2022/11/15 07:42:52;;;;;;;18.53;15.53;;;9.60;99.90;;;;;;5053829;28;20584;-54
2022/11/15 07:44:59;;;;;;;17.43;14.10;;;9.60;99.90;;;;;;5053610;28;20277;-53
2022/11/15 07:47:46;;;;;;;18.47;16.17;;;9.60;99.90;;;;;;5058554;28;20357;-55
2022/11/15 07:50:33;;;;;;;21.73;17.03;;;9.60;99.90;;;;;;5056010;28;20222;-54
2022/11/15 07:53:20;;;;;;;21.37;18.10;;;9.60;99.90;;;;;;5053997;28;20277;-53
2022/11/15 07:56:08;;;;;;;20.33;16.27;;;9.60;99.90;;;;;;5055637;28;20580;-54
2022/11/15 07:58:54;;;;;;;20.00;15.77;;;9.70;99.90;;;;;;5052044;28;20273;-54
2022/11/15 08:01:41;;;;;;;17.37;14.60;;;9.80;99.90;;;;;;5059415;28;20235;-54
2022/11/15 08:04:27;;;;;;;18.73;14.90;;;9.80;99.90;;;;;;5066609;28;20270;-53
2022/11/15 08:07:14;;;;;;;15.97;14.27;;;9.80;99.90;;;;;;5052166;28;20306;-54
2022/11/15 08:10:03;;;;;;;19.63;15.97;;;9.80;99.90;;;;;;5058775;28;20682;-53
2022/11/15 08:12:58;;;;;;;16.63;14.20;;;9.90;99.90;;;;;;5055581;28;20238;-54
2022/11/15 08:15:45;;;;;;;16.07;14.00;;;10.00;99.90;;;;;;5060043;28;21401;-54
2022/11/15 08:18:32;;;;;;;16.97;15.17;;;10.00;99.90;;;;;;5058221;28;20298;-54
2022/11/15 08:21:20;;;;;;;17.10;14.20;;;10.10;99.90;;;;;;5053079;28;20238;-55
2022/11/15 08:24:10;;;;;;;20.07;15.07;;;10.20;99.90;;;;;;5053119;28;20587;-53
2022/11/15 08:26:58;;;;;;;18.20;14.70;;;10.30;99.90;;;;;;5052978;28;20235;-54
2022/11/15 08:29:46;;;;;;;17.33;13.93;;;10.30;99.90;;;;;;5064560;28;20238;-53
2022/11/15 08:32:33;;;;;;;20.07;14.37;;;10.40;99.90;;;;;;5057929;28;20243;-53
2022/11/15 08:35:20;;;;;;;17.97;13.80;;;10.50;99.90;;;;;;5055561;28;20266;-55
2022/11/15 08:38:14;;;;;;;14.77;13.20;;;10.50;99.90;;;;;;5051326;28;20349;-54
2022/11/15 08:41:03;;;;;;;16.23;12.90;;;10.50;99.90;;;;;;5058499;28;20222;-54
2022/11/15 08:43:52;;;;;;;14.73;12.70;;;10.60;99.90;;;;;;5052638;28;20243;-55
2022/11/15 08:46:38;;;;;;;16.63;13.23;;;10.60;99.90;;;;;;5058469;28;20579;-55
2022/11/15 08:49:24;;;;;;;16.43;13.07;;;10.70;99.90;;;;;;5050207;28;20221;-55
2022/11/15 08:52:11;;;;;;;16.57;12.90;;;10.80;99.90;;;;;;5051754;28;20238;-56
2022/11/15 08:54:58;;;;;;;15.43;12.30;;;10.80;99.90;;;;;;5053268;28;20238;-54
2022/11/15 08:57:45;;;;;;;13.97;12.47;;;10.80;99.90;;;;;;5056659;28;20300;-55
2022/11/15 09:00:33;;;;;;;14.23;12.70;;;10.90;99.90;;;;;;5052355;28;20251;-56
2022/11/15 09:03:20;;;;;;;13.83;11.43;;;10.90;99.90;;;;;;5055240;28;20318;-56
2022/11/15 09:06:07;;;;;;;14.33;12.50;;;11.00;99.90;;;;;;5053173;28;20305;-53
2022/11/15 09:08:54;;;;;;;15.17;12.20;;;11.10;99.90;;;;;;5053754;28;20694;-55
2022/11/15 09:11:41;;;;;;;14.60;11.50;;;11.20;99.90;;;;;;5053634;28;20289;-56
2022/11/15 09:14:27;;;;;;;16.00;12.30;;;11.10;99.90;;;;;;5053749;28;20238;-54
2022/11/15 09:17:15;;;;;;;13.77;11.83;;;11.10;99.90;;;;;;5052236;28;20273;-55
2022/11/15 09:20:10;;;;;;;14.93;12.50;;;11.20;99.90;;;;;;5052435;28;20231;-54
2022/11/15 09:23:00;;;;;;;12.83;11.53;;;11.20;99.90;;;;;;5053492;28;20238;-55
2022/11/15 09:25:47;;;;;;;14.73;11.17;;;11.30;99.90;;;;;;5050335;28;20672;-56
2022/11/15 09:28:34;;;;;;;14.47;11.70;;;11.40;99.90;;;;;;5057167;28;20226;-55
2022/11/15 09:31:22;;;;;;;13.40;11.23;;;11.60;99.90;;;;;;5053761;28;20748;-55
2022/11/15 09:34:11;;;;;;;17.33;13.60;;;11.60;99.90;;;;;;5056663;28;20254;-56
2022/11/15 09:36:57;;;;;;;15.07;13.50;;;11.60;99.90;;;;;;5049160;28;20235;-55
2022/11/15 09:39:44;;;;;;;13.93;12.30;;;11.70;99.90;;;;;;5054468;28;20256;-56
2022/11/15 09:42:52;;;;;;;11.97;10.53;;;11.70;99.90;;;;;;5054108;28;20240;-53
2022/11/15 09:45:52;;;;;;;14.33;11.57;;;11.80;99.90;;;;;;5053543;28;20264;-56
2022/11/15 09:48:52;;;;;;;16.40;11.57;;;11.90;99.90;;;;;;5050670;28;20251;-54
2022/11/15 09:51:47;;;;;;;12.83;10.53;;;11.90;99.90;;;;;;5049106;28;20741;-56
2022/11/15 09:54:26;;;;;;;10.77;9.57;;;11.90;99.90;;;;;;5052772;28;20315;-56
2022/11/15 09:57:18;;;;;;;10.73;9.07;;;11.90;99.90;;;;;;5056013;28;20220;-54
2022/11/15 09:59:56;;;;;;;12.50;9.00;;;12.00;99.90;;;;;;5057485;28;20294;-55
2022/11/15 10:02:56;;;;;;;10.67;9.13;;;11.90;99.90;;;;;;5056017;28;20334;-56
2022/11/15 10:05:26;;;;;;;11.00;9.80;;;11.90;99.90;;;;;;5057192;28;20245;-55
2022/11/15 10:08:02;;;;;;;13.00;10.00;;;11.90;99.90;;;;;;5056147;28;20230;-54
2022/11/15 10:10:36;;;;;;;13.17;10.80;;;11.80;99.90;;;;;;5056768;28;20704;-56
2022/11/15 10:13:05;;;;;;;11.67;10.47;;;11.90;99.90;;;;;;5057343;28;20231;-55
2022/11/15 10:15:33;;;;;;;12.40;9.87;;;11.80;99.90;;;;;;5055647;28;20422;-56
2022/11/15 10:18:17;;;;;;;11.60;10.40;;;11.80;99.90;;;;;;5059306;28;20247;-57
2022/11/15 10:20:49;;;;;;;11.03;9.60;;;11.80;99.90;;;;;;5057666;28;20708;-55
2022/11/15 10:23:21;;;;;;;11.47;9.60;;;11.80;99.90;;;;;;5055706;28;20225;-56
2022/11/15 10:25:52;;;;;;;10.63;8.90;;;11.80;99.90;;;;;;5054869;28;20241;-56
2022/11/15 10:28:26;;;;;;;12.63;9.27;;;11.80;99.90;;;;;;5053558;28;20230;-55
2022/11/15 10:30:56;;;;;;;9.97;8.97;;;11.80;99.90;;;;;;5057673;28;20236;-54
2022/11/15 10:33:35;;;;;;;9.63;8.63;;;11.80;99.90;;;;;;5054227;28;20731;-56
2022/11/15 10:36:22;;;;;;;9.40;8.10;;;11.80;99.90;;;;;;5054288;28;20700;-55
2022/11/15 10:39:00;;;;;;;9.43;8.53;;;11.80;99.90;;;;;;5058222;28;20700;-55
2022/11/15 10:41:38;;;;;;;10.97;9.00;;;11.90;99.90;;;;;;5057084;28;20236;-57
2022/11/15 10:44:20;;;;;;;10.37;8.57;;;12.10;99.90;;;;;;5055787;28;20236;-55
2022/11/15 10:47:04;;;;;;;8.97;7.97;;;12.20;99.90;;;;;;5056464;28;20250;-55
2022/11/15 10:49:33;;;;;;;8.37;7.17;;;12.30;99.90;;;;;;5055926;28;20241;-55
2022/11/15 10:52:04;;;;;;;8.90;7.53;;;12.40;99.90;;;;;;5057458;28;20249;-56
2022/11/15 10:54:38;;;;;;;8.27;7.10;;;12.50;99.90;;;;;;5057877;28;20226;-55
2022/11/15 10:57:11;;;;;;;8.87;7.80;;;12.60;99.90;;;;;;5054618;28;20237;-54
2022/11/15 10:59:39;;;;;;;10.23;8.03;;;12.60;99.90;;;;;;5054312;28;20313;-54
2022/11/15 11:02:28;;;;;;;9.77;7.87;;;12.60;99.90;;;;;;5055253;28;20238;-55
2022/11/15 11:04:56;;;;;;;10.70;7.70;;;12.70;99.90;;;;;;5058626;28;20248;-56
2022/11/15 11:07:27;;;;;;;8.47;7.67;;;12.70;99.90;;;;;;5052799;28;20236;-55
2022/11/15 11:10:04;;;;;;;9.83;8.20;;;12.90;99.90;;;;;;5051345;28;20261;-54
2022/11/15 11:12:52;;;;;;;8.40;7.50;;;12.90;99.90;;;;;;5054292;28;20372;-57
2022/11/15 11:15:20;;;;;;;8.73;7.80;;;13.00;99.90;;;;;;5055322;28;20230;-55
2022/11/15 11:18:00;;;;;;;9.30;7.97;;;13.10;99.90;;;;;;5056600;28;20321;-52
2022/11/15 11:20:34;;;;;;;8.57;7.67;;;13.30;99.90;;;;;;5055371;28;20276;-54
2022/11/15 11:23:17;;;;;;;8.53;7.63;;;13.40;99.90;;;;;;5054576;28;20320;-56
2022/11/15 11:25:58;;;;;;;9.20;8.13;;;13.40;99.90;;;;;;5053954;28;20234;-54
2022/11/15 11:28:38;;;;;;;8.67;7.63;;;13.40;99.90;;;;;;5056418;28;20221;-55
2022/11/15 11:31:21;;;;;;;8.67;6.63;;;13.30;99.90;;;;;;5056197;28;20258;-55
2022/11/15 11:34:01;;;;;;;8.63;7.43;;;13.40;99.90;;;;;;5054917;28;20240;-54
2022/11/15 11:36:40;;;;;;;10.33;7.23;;;13.30;99.90;;;;;;5051882;28;20225;-54
2022/11/15 11:39:25;;;;;;;8.60;7.10;;;13.30;99.90;;;;;;5053846;28;21581;-57
2022/11/15 11:42:03;;;;;;;8.50;7.53;;;13.30;99.90;;;;;;5053419;28;20583;-55
2022/11/15 11:44:45;;;;;;;10.03;7.47;;;13.30;99.90;;;;;;5055032;28;20705;-54
2022/11/15 11:47:20;;;;;;;11.13;7.97;;;13.30;99.90;;;;;;5051781;28;20256;-54
2022/11/15 11:49:52;;;;;;;9.17;7.87;;;13.40;99.90;;;;;;5053187;28;20291;-55
2022/11/15 11:52:26;;;;;;;9.77;7.50;;;13.40;99.90;;;;;;5053652;28;20237;-55
2022/11/15 11:55:02;;;;;;;8.63;7.83;;;13.40;99.90;;;;;;5053023;28;20234;-56
2022/11/15 11:57:39;;;;;;;8.90;7.33;;;13.40;99.90;;;;;;5054011;28;20328;-56
2022/11/15 12:00:18;;;;;;;8.20;7.37;;;13.50;99.90;;;;;;5055595;28;20249;-55
2022/11/15 12:03:08;;;;;;;8.73;6.67;;;13.60;99.90;;;;;;5052034;28;20268;-56
2022/11/15 12:05:41;;;;;;;7.87;7.07;;;13.70;99.90;;;;;;5052304;28;20701;-56
2022/11/15 12:08:23;;;;;;;9.83;7.17;;;13.80;99.90;;;;;;5053246;28;20231;-55
2022/11/15 12:11:08;;;;;;;9.80;7.10;;;13.80;99.90;;;;;;5053597;28;20685;-58
2022/11/15 12:13:40;;;;;;;8.20;7.40;;;13.80;99.90;;;;;;5054774;28;20228;-55
2022/11/15 12:16:16;;;;;;;9.23;7.20;;;13.80;99.90;;;;;;5051940;28;20238;-57
2022/11/15 12:18:49;;;;;;;10.90;7.67;;;13.80;99.90;;;;;;5055249;28;20233;-55
2022/11/15 12:21:25;;;;;;;7.80;6.97;;;13.80;99.90;;;;;;5055022;28;20304;-57
2022/11/15 12:24:03;;;;;;;8.30;7.50;;;13.90;99.90;;;;;;5054585;28;20227;-57
2022/11/15 12:26:37;;;;;;;8.43;7.17;;;13.90;99.90;;;;;;5051233;28;20233;-55
2022/11/15 12:29:16;;;;;;;8.27;7.27;;;13.90;99.90;;;;;;5053639;28;20264;-56
2022/11/15 12:31:51;;;;;;;8.93;7.20;;;13.90;99.90;;;;;;5050867;28;20269;-54
2022/11/15 12:34:47;;;;;;;8.40;6.53;;;13.90;99.90;;;;;;5053539;28;20226;-56
2022/11/15 12:37:56;;;;;;;6.97;6.27;;;13.90;99.90;;;;;;5051313;28;20596;-55
2022/11/15 12:40:36;;;;;;;6.80;6.20;;;13.90;99.90;;;;;;5052025;28;20226;-56
2022/11/15 12:43:22;;;;;;;7.03;6.23;;;13.90;99.90;;;;;;5054156;28;20597;-54
2022/11/15 12:45:52;;;;;;;7.90;7.13;;;13.90;99.90;;;;;;5051595;28;20238;-56
2022/11/15 12:48:55;;;;;;;9.33;6.33;;;13.80;99.90;;;;;;5049644;28;20313;-55
2022/11/15 12:51:46;;;;;;;6.07;5.47;;;13.90;99.90;;;;;;5019485;28;20241;-55
2022/11/15 12:54:52;;;;;;;7.60;5.90;;;14.00;99.90;;;;;;5039042;28;20273;-56
2022/11/15 12:57:39;;;;;;;8.23;6.27;;;14.00;99.90;;;;;;5048547;28;20246;-57
2022/11/15 13:00:38;;;;;;;7.00;5.80;;;14.00;99.90;;;;;;5049397;28;20257;-55
2022/11/15 13:03:25;;;;;;;6.67;5.97;;;14.10;99.90;;;;;;5048526;28;20716;-55
2022/11/15 13:06:09;;;;;;;8.53;6.10;;;14.00;99.90;;;;;;5051211;28;20570;-56
2022/11/15 13:08:44;;;;;;;6.60;5.90;;;14.00;99.90;;;;;;5051573;28;20218;-57
2022/11/15 13:11:47;;;;;;;6.40;5.80;;;14.00;99.90;;;;;;5051483;28;21059;-56
2022/11/15 13:14:40;;;;;;;6.87;5.80;;;13.90;99.90;;;;;;5051877;28;20221;-56
2022/11/15 13:17:27;;;;;;;7.67;5.90;;;14.00;99.90;;;;;;5050854;28;20250;-55
2022/11/15 13:20:03;;;;;;;7.23;6.20;;;14.10;99.90;;;;;;5052815;28;20598;-55
2022/11/15 13:22:52;;;;;;;7.83;6.10;;;14.10;99.90;;;;;;5054662;28;20220;-56
2022/11/15 13:25:41;;;;;;;9.90;5.70;;;14.10;99.90;;;;;;5052055;28;20234;-57
2022/11/15 13:28:19;;;;;;;6.50;5.10;;;14.00;99.90;;;;;;5052584;28;20245;-57
2022/11/15 13:30:51;;;;;;;7.13;6.00;;;14.20;99.90;;;;;;5056441;28;20287;-56
2022/11/15 13:33:22;;;;;;;7.23;5.90;;;14.00;99.90;;;;;;5057407;28;20287;-56
2022/11/15 13:35:55;;;;;;;8.30;5.90;;;14.00;99.90;;;;;;5055395;28;20230;-55
2022/11/15 13:38:28;;;;;;;6.17;5.33;;;14.00;99.90;;;;;;5058029;28;20238;-55
2022/11/15 13:40:58;;;;;;;6.00;5.23;;;13.90;99.90;;;;;;5056252;28;20235;-55
2022/11/15 13:43:35;;;;;;;6.20;5.30;;;14.00;99.90;;;;;;5059937;28;20220;-55
2022/11/15 13:46:11;;;;;;;6.53;5.70;;;14.00;99.90;;;;;;5055199;28;20292;-55
2022/11/15 13:48:39;;;;;;;6.23;5.63;;;14.00;99.90;;;;;;5055636;28;20244;-56
2022/11/15 13:51:16;;;;;;;5.90;5.30;;;14.00;99.90;;;;;;5055601;28;20311;-56
2022/11/15 13:53:48;;;;;;;5.63;5.13;;;14.00;99.90;;;;;;5056733;28;20238;-56
2022/11/15 13:56:17;;;;;;;6.97;5.70;;;13.90;99.90;;;;;;5052370;28;20230;-56
2022/11/15 13:58:46;;;;;;;6.20;5.60;;;13.90;99.90;;;;;;5057737;28;20230;-55
2022/11/15 14:01:19;;;;;;;5.77;5.10;;;13.90;99.90;;;;;;5056592;28;20234;-56
2022/11/15 14:03:55;;;;;;;6.07;5.47;;;13.80;99.90;;;;;;5057312;28;20248;-56
2022/11/15 14:06:27;;;;;;;6.80;5.63;;;13.90;99.90;;;;;;5055563;28;20230;-55
2022/11/15 14:09:40;;;;;;;6.40;5.20;;;13.80;99.90;;;;;;5056510;28;20230;-55
2022/11/15 14:12:30;;;;;;;5.87;4.80;;;13.80;99.90;;;;;;5059220;28;20234;-55
2022/11/15 14:14:59;;;;;;;6.23;5.27;;;13.70;99.90;;;;;;5055074;28;20245;-55
2022/11/15 14:17:40;;;;;;;5.70;5.20;;;13.70;99.90;;;;;;5054918;28;20259;-56
2022/11/15 14:20:27;;;;;;;5.60;5.10;;;13.70;99.90;;;;;;5058173;28;20236;-55
2022/11/15 14:22:57;;;;;;;6.17;5.43;;;13.70;99.90;;;;;;5057254;28;20222;-55
2022/11/15 14:25:27;;;;;;;6.83;5.87;;;13.80;99.90;;;;;;5054648;28;20234;-56
2022/11/15 14:28:14;;;;;;;5.40;4.70;;;13.80;99.90;;;;;;5057834;28;20230;-55